Авиационная погода в аэропорту Имени Алексея Леонова

Регион: 
Погода METAR: 
UNEE 221800Z 00000MPS 2800 FU BR OVC004 M22/M24 Q1031 R23/920340 NOSIG RMK QFE750
Время наблюдения
2022-01-22T18:00:00Z
Температура C
-22.0
Точка росы
-24.0
Направление ветра
0
Скорость ветра (узлы)
0
Метео видимость
1.74
Облачность
OVC
Нижняя граница облачности (футы)
400
Явления погоды
FU BR
Условия полета
LIFR
Аэропорт подробнее: 
OVC – сплошная облачность;
BR – дымка (видимость от 1 до 9 км); FU – дым (видимость менее 10 км);